createdAt,value
2018-05-15T00:01:31.977Z,15.60
2018-05-15T00:07:37.100Z,15.45
2018-05-15T00:13:41.476Z,15.21
2018-05-15T00:19:46.016Z,15.58
2018-05-15T00:25:51.220Z,15.52
2018-05-15T00:31:56.342Z,15.52
2018-05-15T00:38:00.685Z,15.41
2018-05-15T00:44:05.810Z,15.32
2018-05-15T00:50:10.173Z,15.33
2018-05-15T00:56:14.550Z,15.25
2018-05-15T01:02:19.530Z,15.14
2018-05-15T01:08:24.302Z,14.92
2018-05-15T01:14:29.425Z,14.78
2018-05-15T01:20:33.793Z,14.91
2018-05-15T01:26:38.123Z,14.69
2018-05-15T01:32:42.520Z,14.62
2018-05-15T01:38:46.874Z,14.87
2018-05-15T01:44:51.527Z,14.77
2018-05-15T01:50:56.771Z,14.65
2018-05-15T01:57:01.130Z,14.71
2018-05-15T02:03:06.257Z,14.80
2018-05-15T02:09:10.600Z,14.88
2018-05-15T02:15:15.056Z,14.82
2018-05-15T02:21:19.549Z,14.77
2018-05-15T02:27:23.929Z,14.66
2018-05-15T02:33:29.049Z,14.42
2018-05-15T02:39:33.395Z,14.27
2018-05-15T02:45:38.503Z,14.18
2018-05-15T02:51:42.863Z,14.18
2018-05-15T02:57:48.399Z,14.38
2018-05-15T03:03:53.373Z,14.20
2018-05-15T03:09:57.745Z,14.37
2018-05-15T03:16:02.097Z,14.40
2018-05-15T03:22:06.480Z,14.35
2018-05-15T03:28:11.604Z,14.38
2018-05-15T03:34:15.965Z,14.47
2018-05-15T03:40:20.723Z,14.18
2018-05-15T03:46:25.140Z,13.99
2018-05-15T03:52:29.500Z,13.65
2018-05-15T03:58:33.848Z,13.24
2018-05-15T04:04:56.831Z,13.10
2018-05-15T04:11:01.299Z,13.29
2018-05-15T04:17:06.539Z,13.16
2018-05-15T04:23:11.636Z,13.24
2018-05-15T04:29:16.743Z,13.53
2018-05-15T04:35:22.317Z,13.84
2018-05-15T04:41:26.637Z,14.11
2018-05-15T04:47:31.165Z,14.20
2018-05-15T04:53:35.521Z,14.20
2018-05-15T04:59:40.033Z,14.09
2018-05-15T05:05:45.187Z,14.31
2018-05-15T05:11:50.818Z,14.44
2018-05-15T05:17:55.237Z,14.56
2018-05-15T05:23:59.592Z,14.96
2018-05-15T05:30:03.949Z,15.18
2018-05-15T05:36:09.287Z,15.34
2018-05-15T05:42:13.700Z,15.60
2018-05-15T05:48:18.120Z,15.74
2018-05-15T05:54:23.628Z,16.08
2018-05-15T06:00:28.164Z,16.34
2018-05-15T06:06:32.508Z,16.67
2018-05-15T06:12:37.270Z,17.10
2018-05-15T06:18:41.617Z,17.56
2018-05-15T06:24:46.746Z,17.94
2018-05-15T06:30:51.845Z,18.26
2018-05-15T06:36:57.047Z,18.46
2018-05-15T06:43:01.400Z,18.58
2018-05-15T06:49:05.952Z,19.05
2018-05-15T06:55:11.133Z,19.39
2018-05-15T07:01:16.242Z,19.52
2018-05-15T07:07:20.751Z,19.47
2018-05-15T07:13:26.243Z,20.10
2018-05-15T07:19:30.678Z,20.37
2018-05-15T07:25:35.009Z,20.31
2018-05-15T07:31:39.388Z,20.83
2018-05-15T07:37:43.753Z,21.23
2018-05-15T07:43:48.120Z,21.09
2018-05-15T07:49:53.875Z,20.96
2018-05-15T07:55:58.227Z,21.43
2018-05-15T08:02:02.620Z,21.82
2018-05-15T08:08:06.996Z,22.35
2018-05-15T08:14:11.343Z,22.88
2018-05-15T08:20:15.693Z,23.33
2018-05-15T08:26:20.135Z,23.56
2018-05-15T08:32:25.304Z,23.59
2018-05-15T08:38:29.664Z,23.60
2018-05-15T08:44:34.017Z,24.03
2018-05-15T08:50:38.381Z,24.26
2018-05-15T08:56:42.750Z,24.73
2018-05-15T09:02:47.865Z,24.84
2018-05-15T09:08:52.570Z,25.30
2018-05-15T09:14:57.269Z,25.76
2018-05-15T09:21:01.700Z,25.75
2018-05-15T09:27:06.043Z,25.83
2018-05-15T09:33:11.210Z,25.85
2018-05-15T09:39:16.337Z,26.36
2018-05-15T09:45:21.460Z,25.66
2018-05-15T09:51:25.829Z,25.50
2018-05-15T09:57:30.176Z,25.53
2018-05-15T10:03:34.733Z,25.90
2018-05-15T10:09:39.122Z,26.14
2018-05-15T10:15:44.245Z,26.95
2018-05-15T10:21:48.601Z,26.91
2018-05-15T10:27:53.053Z,26.56
2018-05-15T10:33:57.401Z,26.20
2018-05-15T10:40:01.952Z,26.35
2018-05-15T10:46:06.310Z,26.71
2018-05-15T10:52:10.653Z,26.28
2018-05-15T10:58:15.784Z,25.95
2018-05-15T11:04:20.372Z,27.11
2018-05-15T11:10:24.849Z,25.97
2018-05-15T11:16:29.293Z,25.77
2018-05-15T11:22:52.042Z,26.27
2018-05-15T11:28:56.441Z,25.91
2018-05-15T11:35:00.851Z,24.73
2018-05-15T11:41:06.849Z,24.59
2018-05-15T11:47:11.979Z,26.22
2018-05-15T11:53:16.838Z,25.78
2018-05-15T11:59:22.455Z,25.21
2018-05-15T12:05:26.850Z,24.47
2018-05-15T12:11:31.305Z,24.68
2018-05-15T12:17:35.691Z,26.30
2018-05-15T12:23:40.042Z,27.18
2018-05-15T12:29:45.432Z,26.24
2018-05-15T12:35:49.904Z,25.20
2018-05-15T12:41:55.645Z,26.35
2018-05-15T12:48:00.737Z,28.44
2018-05-15T12:54:05.178Z,28.44
2018-05-15T13:00:09.569Z,27.35
2018-05-15T13:06:13.923Z,28.26
2018-05-15T13:12:18.475Z,29.76
2018-05-15T13:18:23.861Z,31.36
2018-05-15T13:24:28.249Z,30.18
2018-05-15T13:30:32.577Z,29.67
2018-05-15T13:36:37.733Z,27.58
2018-05-15T13:42:42.086Z,26.46
2018-05-15T13:48:46.466Z,25.68
2018-05-15T13:54:50.857Z,25.49
2018-05-15T14:00:55.336Z,25.36
2018-05-15T14:06:59.748Z,26.49
2018-05-15T14:13:04.870Z,27.29
2018-05-15T14:19:09.250Z,27.34
2018-05-15T14:25:13.824Z,26.81
2018-05-15T14:31:18.140Z,27.12
2018-05-15T14:37:23.298Z,26.72
2018-05-15T14:43:27.770Z,26.96
2018-05-15T14:49:32.249Z,26.49
2018-05-15T14:55:36.674Z,25.97
2018-05-15T15:01:42.382Z,25.32
2018-05-15T15:07:48.197Z,25.11
2018-05-15T15:13:54.071Z,24.34
2018-05-15T15:19:59.285Z,24.10
2018-05-15T15:26:04.478Z,24.33
2018-05-15T15:32:08.913Z,24.34
2018-05-15T15:38:13.303Z,24.16
2018-05-15T15:44:17.655Z,24.10
2018-05-15T15:50:22.069Z,23.98
2018-05-15T15:56:26.424Z,23.44
2018-05-15T16:02:30.782Z,22.86
2018-05-15T16:08:35.174Z,22.93
2018-05-15T16:14:39.537Z,22.84
2018-05-15T16:20:43.895Z,23.49
2018-05-15T16:26:48.201Z,24.35
2018-05-15T16:32:53.394Z,25.78
2018-05-15T16:38:57.748Z,28.29
2018-05-15T16:45:02.106Z,30.09
2018-05-15T16:51:06.473Z,31.75
2018-05-15T16:57:11.601Z,30.45
2018-05-15T17:03:15.948Z,27.41
2018-05-15T17:09:20.636Z,25.14
2018-05-15T17:15:24.989Z,23.96
2018-05-15T17:21:30.142Z,23.15
2018-05-15T17:27:34.720Z,22.99
2018-05-15T17:33:39.121Z,22.68
2018-05-15T17:39:43.738Z,22.40
2018-05-15T17:45:48.243Z,21.72
2018-05-15T17:51:54.085Z,21.11
2018-05-15T17:57:59.565Z,20.50
2018-05-15T18:04:03.901Z,20.16
2018-05-15T18:10:08.267Z,19.58
2018-05-15T18:16:13.386Z,19.48
2018-05-15T18:22:17.697Z,19.03
2018-05-15T18:28:23.023Z,18.30
2018-05-15T18:34:28.140Z,17.55
2018-05-15T18:40:32.601Z,16.93
2018-05-15T18:46:37.303Z,16.64
2018-05-15T18:52:41.629Z,16.56
2018-05-15T18:58:45.986Z,16.37
2018-05-15T19:04:50.404Z,16.67
2018-05-15T19:10:54.776Z,16.59
2018-05-15T19:16:59.125Z,16.37
2018-05-15T19:23:03.664Z,16.29
2018-05-15T19:29:07.997Z,16.19
2018-05-15T19:35:18.603Z,15.95
2018-05-15T19:41:23.049Z,16.00
2018-05-15T19:47:27.349Z,15.80
2018-05-15T19:53:33.221Z,15.84
2018-05-15T19:59:37.550Z,16.02
2018-05-15T20:05:42.711Z,15.86
2018-05-15T20:11:47.073Z,15.88
2018-05-15T20:17:51.462Z,15.71
2018-05-15T20:23:55.984Z,15.64
2018-05-15T20:30:00.344Z,15.64
2018-05-15T20:36:05.470Z,15.54
2018-05-15T20:42:10.488Z,15.59
2018-05-15T20:48:14.762Z,15.50
2018-05-15T20:54:19.126Z,15.63
2018-05-15T21:00:23.798Z,15.67
2018-05-15T21:06:28.133Z,15.57
2018-05-15T21:12:33.276Z,15.68
2018-05-15T21:18:37.620Z,15.56
2018-05-15T21:24:41.996Z,15.61
2018-05-15T21:30:46.341Z,15.48
2018-05-15T21:36:50.865Z,15.48
2018-05-15T21:42:55.290Z,15.30
2018-05-15T21:48:59.649Z,15.30
2018-05-15T21:55:04.004Z,15.28
2018-05-15T22:01:08.372Z,15.23
2018-05-15T22:07:12.735Z,15.26
2018-05-15T22:13:35.029Z,15.30
2018-05-15T22:20:03.243Z,14.91
2018-05-15T22:26:13.590Z,14.88
2018-05-15T22:32:17.946Z,14.90
2018-05-15T22:38:22.849Z,14.90
2018-05-15T22:44:27.211Z,14.69
2018-05-15T22:50:32.014Z,14.75
2018-05-15T22:56:36.387Z,14.68
2018-05-15T23:02:40.734Z,14.85
2018-05-15T23:08:45.080Z,14.78
2018-05-15T23:14:49.564Z,14.67
2018-05-15T23:20:54.394Z,14.62
2018-05-15T23:26:59.588Z,14.82
2018-05-15T23:33:03.950Z,14.58
2018-05-15T23:39:08.316Z,14.64
2018-05-15T23:45:12.668Z,14.66
2018-05-15T23:51:17.041Z,14.46
2018-05-15T23:57:22.203Z,14.29
